Time;durP1;ratioP1;P1;durP2;ratioP2;P2;SDS_P1;SDS_P2;PMS_P1;PMS_P2;Temp;Humidity;BMP_temperature;BMP_pressure;BME280_temperature;BME280_humidity;BME280_pressure;Samples;Min_cycle;Max_cycle;Signal;HPM_P1;HPM_P2
2020/12/29 00:01:54;;;;;;;1.98;1.08;;;14.50;65.40;;;;;;5032545;28;20033;-56
2020/12/29 00:04:25;;;;;;;1.40;1.30;;;14.50;65.40;;;;;;5032389;28;20036;-55
2020/12/29 00:06:51;;;;;;;;;;;14.50;65.40;;;;;;5034661;28;20045;-56
2020/12/29 00:09:19;;;;;;;1.20;1.00;;;14.50;65.40;;;;;;5032298;28;19916;-56
2020/12/29 00:11:45;;;;;;;1.15;1.05;;;14.40;65.40;;;;;;5014768;28;20483;-56
2020/12/29 00:14:12;;;;;;;2.70;0.88;;;14.40;65.40;;;;;;5032349;28;20025;-55
2020/12/29 00:16:38;;;;;;;1.73;1.10;;;14.40;65.50;;;;;;5032339;28;20025;-56
2020/12/29 00:19:10;;;;;;;0.90;0.90;;;14.40;65.50;;;;;;5032239;28;20089;-56
2020/12/29 00:21:37;;;;;;;1.40;1.20;;;14.40;65.50;;;;;;5032302;28;20063;-55
2020/12/29 00:24:03;;;;;;;2.30;0.85;;;14.40;65.50;;;;;;5032098;28;20029;-56
2020/12/29 00:26:29;;;;;;;1.20;1.10;;;14.40;65.50;;;;;;5032294;28;20061;-55
2020/12/29 00:28:55;;;;;;;1.20;1.10;;;14.40;65.50;;;;;;5032320;28;20049;-56
2020/12/29 00:31:22;;;;;;;1.27;0.88;;;14.40;65.50;;;;;;5032062;28;20439;-55
2020/12/29 00:33:49;;;;;;;1.50;1.10;;;14.40;65.50;;;;;;5031991;28;20033;-56
2020/12/29 00:36:15;;;;;;;1.58;1.05;;;14.40;65.50;;;;;;5014225;28;20025;-55
2020/12/29 00:38:41;;;;;;;1.85;1.33;;;14.40;65.50;;;;;;5014220;28;20025;-56
2020/12/29 00:41:10;;;;;;;1.42;0.80;;;14.30;65.50;;;;;;5014290;28;20037;-55
2020/12/29 00:43:36;;;;;;;2.63;1.25;;;14.30;65.50;;;;;;5032062;28;20037;-56
2020/12/29 00:46:16;;;;;;;1.20;1.10;;;14.30;65.50;;;;;;5031907;28;20021;-56
2020/12/29 00:48:42;;;;;;;1.00;0.90;;;14.30;65.50;;;;;;5031863;28;20480;-56
2020/12/29 00:51:13;;;;;;;1.00;0.80;;;14.30;65.50;;;;;;5031835;28;20040;-56
2020/12/29 00:53:38;;;;;;;1.27;1.00;;;14.30;65.50;;;;;;5031864;28;20067;-56
2020/12/29 00:56:06;;;;;;;1.73;1.00;;;14.30;65.50;;;;;;5014216;28;20021;-56
2020/12/29 00:58:32;;;;;;;1.15;1.00;;;14.30;65.50;;;;;;5031578;28;20026;-55
2020/12/29 01:00:58;;;;;;;1.45;1.30;;;14.30;65.60;;;;;;5031495;28;20045;-55
2020/12/29 01:03:24;;;;;;;1.13;0.80;;;14.30;65.50;;;;;;5031054;28;20021;-53
2020/12/29 01:05:50;;;;;;;1.42;1.17;;;14.30;65.60;;;;;;5016239;28;20021;-55
2020/12/29 01:08:16;;;;;;;1.40;0.98;;;14.30;65.60;;;;;;5013694;28;20056;-55
2020/12/29 01:10:43;;;;;;;1.00;0.90;;;14.20;65.60;;;;;;5031710;28;20033;-56
2020/12/29 01:13:13;;;;;;;1.58;1.20;;;14.30;65.60;;;;;;5031730;28;20431;-56
2020/12/29 01:15:39;;;;;;;1.50;1.10;;;14.20;65.50;;;;;;5013791;28;20547;-55
2020/12/29 01:18:05;;;;;;;0.88;0.88;;;14.20;65.60;;;;;;5031780;28;20079;-56
2020/12/29 01:20:31;;;;;;;0.80;0.80;;;14.30;65.60;;;;;;5031216;28;20050;-55
2020/12/29 01:22:57;;;;;;;1.17;1.08;;;14.20;65.60;;;;;;5031653;28;20160;-55
2020/12/29 01:25:23;;;;;;;2.03;1.40;;;14.20;65.60;;;;;;5013849;28;20021;-55
2020/12/29 01:27:49;;;;;;;1.63;1.00;;;14.20;65.60;;;;;;5031231;28;20112;-55
2020/12/29 01:30:15;;;;;;;1.35;1.10;;;14.20;65.70;;;;;;5031482;28;20101;-56
2020/12/29 01:32:42;;;;;;;0.98;0.93;;;14.20;65.60;;;;;;5031386;28;20373;-56
2020/12/29 01:35:07;;;;;;;1.08;0.98;;;14.20;66.30;;;;;;5031407;28;20032;-56
2020/12/29 01:37:40;;;;;;;1.15;1.05;;;14.20;65.70;;;;;;5013667;28;20419;-56
2020/12/29 01:40:06;;;;;;;1.30;1.10;;;14.20;65.70;;;;;;5031349;28;20037;-55
2020/12/29 01:42:31;;;;;;;1.20;1.10;;;14.20;65.70;;;;;;5013640;28;20013;-56
2020/12/29 01:44:58;;;;;;;1.30;1.00;;;14.10;65.60;;;;;;5031296;28;20037;-55
2020/12/29 01:47:25;;;;;;;1.15;1.00;;;14.10;65.60;;;;;;5031382;28;20100;-56
2020/12/29 01:49:50;;;;;;;1.30;1.20;;;14.10;65.60;;;;;;5031339;28;20084;-56
2020/12/29 01:52:16;;;;;;;1.35;1.25;;;14.10;66.30;;;;;;5031558;28;20057;-55
2020/12/29 01:54:42;;;;;;;1.10;1.00;;;14.20;65.70;;;;;;5031246;28;20034;-56
2020/12/29 01:57:08;;;;;;;1.25;1.00;;;14.10;65.60;;;;;;5031384;28;20026;-56
2020/12/29 01:59:34;;;;;;;1.20;1.10;;;14.10;65.70;;;;;;5031112;28;20494;-55
2020/12/29 02:02:00;;;;;;;2.58;1.10;;;14.10;65.70;;;;;;5031242;28;20389;-56
2020/12/29 02:04:26;;;;;;;1.13;1.02;;;14.10;75.80;;;;;;5031334;28;20106;-56
2020/12/29 02:06:52;;;;;;;1.30;1.20;;;14.10;65.60;;;;;;5014972;28;20088;-56
2020/12/29 02:09:17;;;;;;;0.90;0.90;;;14.10;65.70;;;;;;5013357;28;20021;-55
2020/12/29 02:11:43;;;;;;;1.77;0.85;;;14.10;65.70;;;;;;5013574;28;20486;-55
2020/12/29 02:14:09;;;;;;;1.10;1.00;;;14.00;65.60;;;;;;5031120;28;20503;-55
2020/12/29 02:16:38;;;;;;;1.20;1.10;;;14.10;65.70;;;;;;5033712;28;20026;-55
2020/12/29 02:19:05;;;;;;;1.38;1.27;;;14.00;65.60;;;;;;5034641;28;20396;-54
2020/12/29 02:21:35;;;;;;;0.90;0.90;;;14.00;65.60;;;;;;5034734;28;20450;-56
2020/12/29 02:24:02;;;;;;;1.20;1.10;;;14.00;65.60;;;;;;5034595;28;20032;-55
2020/12/29 02:26:32;;;;;;;1.23;1.10;;;14.00;65.60;;;;;;5034361;28;20021;-54
2020/12/29 02:29:04;;;;;;;1.30;1.20;;;14.00;65.60;;;;;;5034495;28;20451;-53
2020/12/29 02:31:30;;;;;;;1.38;1.20;;;14.00;65.60;;;;;;5034355;28;20068;-55
2020/12/29 02:33:55;;;;;;;1.00;0.88;;;14.00;65.70;;;;;;5034582;28;20029;-56
2020/12/29 02:36:21;;;;;;;1.60;1.20;;;14.00;65.60;;;;;;5016631;28;20075;-55
2020/12/29 02:38:46;;;;;;;1.35;1.25;;;14.00;65.70;;;;;;5034258;28;20041;-58
2020/12/29 02:41:15;;;;;;;1.25;1.02;;;14.00;65.60;;;;;;5034070;28;20051;-54
2020/12/29 02:43:41;;;;;;;1.30;1.10;;;14.00;65.60;;;;;;5016277;28;20017;-56
2020/12/29 02:46:07;;;;;;;1.20;1.10;;;13.90;65.50;;;;;;5016376;28;20571;-55
2020/12/29 02:48:32;;;;;;;1.05;1.00;;;13.90;65.60;;;;;;5034104;28;20025;-55
2020/12/29 02:50:58;;;;;;;1.35;1.25;;;14.00;65.60;;;;;;5034023;28;20036;-56
2020/12/29 02:53:23;;;;;;;1.17;0.98;;;13.90;65.60;;;;;;5033984;28;20072;-56
2020/12/29 02:55:49;;;;;;;0.93;0.88;;;14.00;65.60;;;;;;5016070;28;20040;-56
2020/12/29 02:58:14;;;;;;;1.15;0.95;;;13.90;65.60;;;;;;5033899;28;20052;-55
2020/12/29 03:00:40;;;;;;;1.00;0.95;;;13.90;65.60;;;;;;5016045;28;20029;-56
2020/12/29 03:03:06;;;;;;;1.10;1.00;;;13.90;65.60;;;;;;5033828;28;20013;-56
2020/12/29 03:05:31;;;;;;;0.80;0.80;;;13.90;65.60;;;;;;5033946;28;20506;-55
2020/12/29 03:07:57;;;;;;;1.25;0.90;;;13.90;65.60;;;;;;5035525;28;20049;-56
2020/12/29 03:10:22;;;;;;;0.80;0.80;;;13.90;65.60;;;;;;5015947;28;20464;-56
2020/12/29 03:12:48;;;;;;;1.20;1.10;;;13.90;65.60;;;;;;5033655;28;20079;-56
2020/12/29 03:15:14;;;;;;;0.85;0.85;;;13.90;65.60;;;;;;5033664;28;20026;-54
2020/12/29 03:17:40;;;;;;;1.17;1.10;;;13.90;65.70;;;;;;5033658;28;20028;-54
2020/12/29 03:20:05;;;;;;;1.70;0.90;;;13.90;65.60;;;;;;5033530;28;20026;-56
2020/12/29 03:22:33;;;;;;;1.23;1.13;;;13.90;65.60;;;;;;5033498;28;20029;-55
2020/12/29 03:24:58;;;;;;;0.98;0.90;;;13.90;65.60;;;;;;5033533;28;20099;-54
2020/12/29 03:27:24;;;;;;;1.13;1.02;;;13.90;65.60;;;;;;5015291;28;20487;-56
2020/12/29 03:29:49;;;;;;;1.23;1.08;;;13.90;65.70;;;;;;5033408;28;20137;-56
2020/12/29 03:32:15;;;;;;;0.95;0.90;;;13.80;66.20;;;;;;5033338;28;20028;-56
2020/12/29 03:34:41;;;;;;;1.05;0.90;;;13.90;65.60;;;;;;5033260;28;20061;-55
2020/12/29 03:37:09;;;;;;;1.17;1.08;;;13.80;65.70;;;;;;5015589;28;20021;-56
2020/12/29 03:39:38;;;;;;;0.80;0.80;;;13.80;65.60;;;;;;5033130;28;20029;-54
2020/12/29 03:42:05;;;;;;;1.60;1.02;;;13.80;65.70;;;;;;5015297;28;20128;-55
2020/12/29 03:44:31;;;;;;;1.00;1.00;;;13.80;65.70;;;;;;5032850;28;20018;-55
2020/12/29 03:46:57;;;;;;;1.00;1.00;;;13.80;65.70;;;;;;5032922;28;20426;-56
2020/12/29 03:49:22;;;;;;;1.05;1.02;;;13.80;65.70;;;;;;5032899;28;20029;-56
2020/12/29 03:51:48;;;;;;;0.90;0.90;;;13.80;65.70;;;;;;5015165;28;20029;-55
2020/12/29 03:54:14;;;;;;;0.95;0.95;;;13.80;65.70;;;;;;5032854;28;20057;-56
2020/12/29 03:56:39;;;;;;;0.88;0.88;;;13.80;65.70;;;;;;5032598;28;20025;-56
2020/12/29 03:59:05;;;;;;;1.10;1.00;;;13.80;65.70;;;;;;5032703;28;20034;-56
2020/12/29 04:01:30;;;;;;;0.90;0.90;;;13.70;65.60;;;;;;5032709;28;20560;-55
2020/12/29 04:03:56;;;;;;;1.88;1.35;;;13.80;65.70;;;;;;5032732;28;20025;-55
2020/12/29 04:06:22;;;;;;;1.98;1.08;;;13.80;65.70;;;;;;5034293;28;20075;-55
2020/12/29 04:08:48;;;;;;;0.98;0.82;;;13.80;65.70;;;;;;5032614;28;20018;-56
2020/12/29 04:11:14;;;;;;;1.13;1.10;;;13.80;65.70;;;;;;5032715;28;20104;-55
2020/12/29 04:13:40;;;;;;;0.95;0.90;;;13.70;65.60;;;;;;5032332;28;20105;-58
2020/12/29 04:16:05;;;;;;;1.15;1.05;;;13.70;65.60;;;;;;5032423;28;20383;-54
2020/12/29 04:18:31;;;;;;;1.02;0.93;;;13.70;65.70;;;;;;5032548;28;20049;-55
2020/12/29 04:20:57;;;;;;;1.27;0.98;;;13.70;65.60;;;;;;5032216;28;20094;-56
2020/12/29 04:23:22;;;;;;;1.20;1.10;;;13.70;65.60;;;;;;5032481;28;20651;-55
2020/12/29 04:25:48;;;;;;;0.82;0.82;;;13.70;65.70;;;;;;5032204;28;20048;-56
2020/12/29 04:28:14;;;;;;;1.42;0.80;;;13.70;65.60;;;;;;5014384;28;20519;-55
2020/12/29 04:30:39;;;;;;;1.23;1.05;;;13.70;65.70;;;;;;5032249;28;20532;-56
2020/12/29 04:33:05;;;;;;;0.77;0.77;;;13.80;65.80;;;;;;5031971;28;20021;-55
2020/12/29 04:35:30;;;;;;;1.27;1.17;;;13.70;65.60;;;;;;5014482;28;20159;-55
2020/12/29 04:37:56;;;;;;;1.10;1.00;;;13.70;65.70;;;;;;5013652;28;20033;-56
2020/12/29 04:40:22;;;;;;;1.17;0.93;;;13.70;65.70;;;;;;5014385;28;20048;-57
2020/12/29 04:42:47;;;;;;;1.05;0.95;;;13.70;66.10;;;;;;5031877;28;20431;-56
2020/12/29 04:45:14;;;;;;;1.17;1.00;;;13.70;65.70;;;;;;5032208;28;20045;-55
2020/12/29 04:47:40;;;;;;;1.00;0.90;;;13.60;65.70;;;;;;5031846;28;20025;-55
2020/12/29 04:50:06;;;;;;;1.13;1.02;;;13.70;65.70;;;;;;5032124;28;20025;-56
2020/12/29 04:52:32;;;;;;;0.90;0.90;;;13.60;65.60;;;;;;5031943;28;20029;-55
2020/12/29 04:54:59;;;;;;;1.10;1.00;;;13.60;65.60;;;;;;5031804;28;20026;-56
2020/12/29 04:57:26;;;;;;;1.15;1.00;;;13.60;65.60;;;;;;5031814;28;20018;-55
2020/12/29 04:59:54;;;;;;;1.35;1.10;;;13.60;65.60;;;;;;5031870;28;20018;-55
2020/12/29 05:02:20;;;;;;;1.08;0.98;;;13.60;65.60;;;;;;5013944;28;20037;-55
2020/12/29 05:04:45;;;;;;;1.52;1.23;;;13.60;65.70;;;;;;5031827;28;20024;-56
2020/12/29 05:07:11;;;;;;;1.05;1.02;;;13.60;65.70;;;;;;5033549;28;20054;-56
2020/12/29 05:09:37;;;;;;;1.10;1.10;;;13.60;65.70;;;;;;5013999;28;20021;-54
2020/12/29 05:12:03;;;;;;;1.10;1.00;;;13.60;65.70;;;;;;5031815;28;20030;-55
2020/12/29 05:14:28;;;;;;;1.23;1.10;;;13.60;65.70;;;;;;5031994;28;20034;-56
2020/12/29 05:16:55;;;;;;;0.93;0.85;;;13.60;66.20;;;;;;5031682;28;20072;-55
2020/12/29 05:19:22;;;;;;;0.75;0.75;;;13.70;66.10;;;;;;5013759;28;20013;-55
2020/12/29 05:21:48;;;;;;;0.85;0.85;;;13.70;66.10;;;;;;5031485;28;20044;-55
2020/12/29 05:24:15;;;;;;;0.70;0.70;;;13.80;66.10;;;;;;5031616;28;20061;-54
2020/12/29 05:26:44;;;;;;;0.65;0.65;;;13.80;66.00;;;;;;5031402;28;20029;-55
2020/12/29 05:29:14;;;;;;;0.70;0.70;;;13.80;66.00;;;;;;5031706;28;20064;-54
2020/12/29 05:31:41;;;;;;;0.60;0.60;;;13.90;66.00;;;;;;5031498;28;20110;-56
2020/12/29 05:34:07;;;;;;;0.75;0.75;;;13.90;65.70;;;;;;5031487;28;20021;-55
2020/12/29 05:36:37;;;;;;;0.77;0.77;;;14.00;65.80;;;;;;5031362;28;20021;-55
2020/12/29 05:39:09;;;;;;;0.85;0.82;;;14.00;65.70;;;;;;5031650;28;20037;-56
2020/12/29 05:41:41;;;;;;;0.70;0.70;;;14.00;65.80;;;;;;5031312;28;20487;-56
2020/12/29 05:44:07;;;;;;;0.77;0.77;;;14.00;65.80;;;;;;5031449;28;20032;-55
2020/12/29 05:46:33;;;;;;;0.90;0.90;;;14.10;65.80;;;;;;5031572;28;20051;-54
2020/12/29 05:49:00;;;;;;;0.80;0.73;;;14.10;65.80;;;;;;5032109;28;20033;-54
2020/12/29 05:51:26;;;;;;;0.98;0.80;;;14.10;65.70;;;;;;5035322;28;20080;-55
2020/12/29 05:54:01;;;;;;;0.73;0.70;;;14.10;65.60;;;;;;5035318;28;20417;-55
2020/12/29 05:56:33;;;;;;;0.60;0.60;;;14.10;65.50;;;;;;5017390;28;20029;-54
2020/12/29 05:59:01;;;;;;;0.60;0.60;;;14.20;65.50;;;;;;5035018;28;20026;-55
2020/12/29 06:01:49;;;;;;;0.75;0.75;;;14.10;65.50;;;;;;5034916;28;20379;-55
2020/12/29 06:04:15;;;;;;;0.65;0.60;;;14.10;65.40;;;;;;5017230;28;20083;-55
2020/12/29 06:06:42;;;;;;;0.65;0.65;;;14.10;65.50;;;;;;5036636;28;20044;-56
2020/12/29 06:09:19;;;;;;;0.82;0.57;;;14.10;65.70;;;;;;5017104;28;20026;-55
2020/12/29 06:11:47;;;;;;;0.60;0.60;;;14.20;65.90;;;;;;5034991;28;20064;-55
2020/12/29 06:14:15;;;;;;;0.50;0.50;;;14.30;65.90;;;;;;5034885;28;20356;-56
2020/12/29 06:16:43;;;;;;;0.47;0.47;;;14.40;66.20;;;;;;5034796;28;20028;-56
2020/12/29 06:19:28;;;;;;;0.52;0.52;;;14.50;66.70;;;;;;5034765;28;20392;-54
2020/12/29 06:22:11;;;;;;;0.47;0.28;;;14.60;65.80;;;;;;5034537;28;20092;-55
2020/12/29 06:24:45;;;;;;;0.70;0.68;;;14.70;65.70;;;;;;5034744;28;20032;-55
2020/12/29 06:27:13;;;;;;;1.02;0.40;;;14.80;65.60;;;;;;5034605;28;20032;-56
2020/12/29 06:29:40;;;;;;;0.50;0.50;;;14.80;65.50;;;;;;5034535;28;20033;-55
2020/12/29 06:32:19;;;;;;;0.55;0.55;;;14.80;65.50;;;;;;5034603;28;20032;-54
2020/12/29 06:34:45;;;;;;;0.40;0.40;;;14.90;65.50;;;;;;5016707;28;20025;-55
2020/12/29 06:37:19;;;;;;;0.55;0.50;;;14.90;65.50;;;;;;5034456;28;20434;-54
2020/12/29 06:39:49;;;;;;;0.40;0.30;;;14.90;65.50;;;;;;5034149;28;20487;-57
2020/12/29 06:42:16;;;;;;;0.85;0.40;;;15.00;65.50;;;;;;5016545;28;20038;-53
2020/12/29 06:44:42;;;;;;;0.40;0.40;;;14.90;65.40;;;;;;5034264;28;20030;-55
2020/12/29 06:47:09;;;;;;;0.40;0.40;;;14.90;65.40;;;;;;5034294;28;20391;-55
2020/12/29 06:49:40;;;;;;;0.55;0.55;;;14.90;65.30;;;;;;5016213;28;20017;-55
2020/12/29 06:52:38;;;;;;;0.60;0.60;;;14.90;65.20;;;;;;5034126;28;20109;-54
2020/12/29 06:55:03;;;;;;;0.45;0.45;;;14.80;64.90;;;;;;5000592;28;20047;-56
2020/12/29 06:57:35;;;;;;;0.57;0.43;;;14.90;65.00;;;;;;5016062;28;20029;-56
2020/12/29 07:00:14;;;;;;;0.60;0.60;;;14.80;65.10;;;;;;5033833;28;20025;-55
2020/12/29 07:02:41;;;;;;;0.40;0.40;;;14.90;65.10;;;;;;5032378;28;20083;-56
2020/12/29 07:05:13;;;;;;;0.65;0.52;;;14.80;65.00;;;;;;5033697;28;20025;-56
2020/12/29 07:07:46;;;;;;;0.40;0.40;;;14.80;64.90;;;;;;5035590;28;20061;-55
2020/12/29 07:10:13;;;;;;;0.40;0.40;;;14.80;65.00;;;;;;5033959;28;20033;-56
2020/12/29 07:12:44;;;;;;;0.40;0.40;;;14.80;65.00;;;;;;5033453;28;20075;-51
2020/12/29 07:15:13;;;;;;;0.40;0.38;;;14.80;64.90;;;;;;5015942;28;20052;-53
2020/12/29 07:17:39;;;;;;;0.50;0.40;;;14.80;64.70;;;;;;5033552;28;20543;-56
2020/12/29 07:20:16;;;;;;;0.50;0.50;;;14.80;64.70;;;;;;5033181;28;20104;-56
2020/12/29 07:22:43;;;;;;;0.73;0.70;;;14.80;64.70;;;;;;5015790;28;20096;-56
2020/12/29 07:25:09;;;;;;;0.70;0.60;;;14.80;64.70;;;;;;5033382;28;20093;-56
2020/12/29 07:27:36;;;;;;;1.40;0.90;;;14.80;64.70;;;;;;5033513;28;20100;-56
2020/12/29 07:30:02;;;;;;;0.65;0.65;;;14.80;64.60;;;;;;5015279;28;20550;-55
2020/12/29 07:32:28;;;;;;;1.20;1.10;;;14.80;64.60;;;;;;5032976;28;20483;-55
2020/12/29 07:34:54;;;;;;;1.35;0.95;;;14.80;64.50;;;;;;5033012;28;20028;-56
2020/12/29 07:37:21;;;;;;;1.30;0.70;;;14.80;64.50;;;;;;5015085;28;20525;-56
2020/12/29 07:39:47;;;;;;;1.08;0.98;;;14.70;64.50;;;;;;5033083;28;20075;-56
2020/12/29 07:42:14;;;;;;;0.63;0.60;;;14.70;64.60;;;;;;5014965;28;20068;-56
2020/12/29 07:44:41;;;;;;;3.03;0.50;;;14.70;64.60;;;;;;5015035;28;20026;-52
2020/12/29 07:47:07;;;;;;;0.80;0.50;;;14.70;64.60;;;;;;5015115;28;20444;-56
2020/12/29 07:49:33;;;;;;;0.52;0.52;;;14.70;64.70;;;;;;5015257;28;20017;-56
2020/12/29 07:51:59;;;;;;;0.93;0.60;;;14.70;64.60;;;;;;5015090;28;20080;-56
2020/12/29 07:54:25;;;;;;;0.88;0.60;;;14.70;64.60;;;;;;5032828;28;20155;-56
2020/12/29 07:56:51;;;;;;;1.10;0.50;;;14.70;64.60;;;;;;5015146;28;20025;-55
2020/12/29 07:59:17;;;;;;;0.50;0.43;;;14.80;64.70;;;;;;5014920;28;20025;-55
2020/12/29 08:01:55;;;;;;;0.50;0.50;;;14.70;64.60;;;;;;5032904;28;20530;-56
2020/12/29 08:04:34;;;;;;;0.80;0.52;;;14.70;64.60;;;;;;5032506;28;20020;-56
2020/12/29 08:07:08;;;;;;;3.65;0.60;;;14.70;64.60;;;;;;5016542;28;20049;-55
2020/12/29 08:09:47;;;;;;;0.75;0.60;;;14.70;64.60;;;;;;5015136;28;20030;-55
2020/12/29 08:12:17;;;;;;;0.68;0.60;;;14.70;64.40;;;;;;5032320;28;20048;-56
2020/12/29 08:14:43;;;;;;;0.75;0.50;;;14.70;64.40;;;;;;5032499;28;20120;-56
2020/12/29 08:17:09;;;;;;;1.13;0.65;;;14.70;64.40;;;;;;5014863;28;20120;-55
2020/12/29 08:19:35;;;;;;;0.43;0.43;;;14.70;64.40;;;;;;5032170;28;20025;-55
2020/12/29 08:22:11;;;;;;;0.60;0.60;;;14.80;65.00;;;;;;5032238;28;20057;-55
2020/12/29 08:24:41;;;;;;;0.50;0.50;;;14.80;64.30;;;;;;5014575;28;20022;-54
2020/12/29 08:27:07;;;;;;;0.80;0.80;;;14.80;64.30;;;;;;5032159;28;20032;-55
2020/12/29 08:29:33;;;;;;;0.73;0.68;;;14.80;64.20;;;;;;5032130;28;20021;-56
2020/12/29 08:32:08;;;;;;;0.85;0.68;;;14.80;64.20;;;;;;5032001;28;20100;-58
2020/12/29 08:34:36;;;;;;;0.47;0.47;;;14.80;64.20;;;;;;5014718;28;20110;-55
2020/12/29 08:37:03;;;;;;;0.50;0.50;;;14.90;64.20;;;;;;5032089;28;20025;-56
2020/12/29 08:39:47;;;;;;;1.52;0.85;;;14.80;64.20;;;;;;5013912;28;20558;-56
2020/12/29 08:42:17;;;;;;;0.75;0.73;;;14.90;64.20;;;;;;5013968;28;20495;-56
2020/12/29 08:44:52;;;;;;;0.55;0.55;;;14.80;64.10;;;;;;5000023;28;20463;-56
2020/12/29 08:47:18;;;;;;;0.50;0.50;;;14.80;64.10;;;;;;5031832;28;20379;-56
2020/12/29 08:49:43;;;;;;;0.68;0.57;;;14.80;64.20;;;;;;5014074;28;20020;-55
2020/12/29 08:52:09;;;;;;;0.75;0.55;;;14.80;64.00;;;;;;5031931;28;20032;-55
2020/12/29 08:54:37;;;;;;;0.55;0.55;;;14.80;64.00;;;;;;5031660;28;20017;-55
2020/12/29 08:57:05;;;;;;;0.77;0.77;;;14.80;64.00;;;;;;5031807;28;20071;-56
2020/12/29 08:59:36;;;;;;;2.55;0.80;;;14.80;64.10;;;;;;5013881;28;20076;-54
2020/12/29 09:02:02;;;;;;;0.80;0.80;;;14.80;63.90;;;;;;5013933;28;20046;-55
2020/12/29 09:04:30;;;;;;;1.13;1.02;;;14.80;63.80;;;;;;5031801;28;20025;-54
2020/12/29 09:07:19;;;;;;;1.23;0.60;;;14.80;63.90;;;;;;5015815;28;20065;-53
2020/12/29 09:09:52;;;;;;;1.13;1.00;;;14.80;64.10;;;;;;5031699;28;20476;-53
2020/12/29 09:12:22;;;;;;;2.72;1.20;;;14.80;63.70;;;;;;5031653;28;20033;-54
2020/12/29 09:14:59;;;;;;;2.47;1.33;;;15.10;64.00;;;;;;5031782;28;20025;-54
2020/12/29 09:17:29;;;;;;;3.22;1.20;;;14.80;64.10;;;;;;5031600;28;20029;-55
2020/12/29 09:20:19;;;;;;;4.10;1.40;;;14.90;64.20;;;;;;5031439;28;20022;-55
2020/12/29 09:22:55;;;;;;;9.43;1.40;;;14.90;64.30;;;;;;5031700;28;20029;-55
2020/12/29 09:25:22;;;;;;;10.23;1.52;;;14.90;64.30;;;;;;5034395;28;20351;-56
2020/12/29 09:27:48;;;;;;;9.23;1.58;;;14.90;64.10;;;;;;5035628;28;20021;-54
2020/12/29 09:30:14;;;;;;;4.93;1.33;;;15.00;63.90;;;;;;5035594;28;20104;-52
2020/12/29 09:32:40;;;;;;;7.50;1.63;;;15.00;63.80;;;;;;5035594;28;20029;-54
2020/12/29 09:37:51;;;;;;;12.52;1.65;;;14.90;63.80;;;;;;5035700;28;20117;-55
2020/12/29 09:40:17;;;;;;;6.03;1.50;;;15.00;63.60;;;;;;5035075;28;20034;-55
2020/12/29 09:42:43;;;;;;;4.18;1.50;;;15.10;63.50;;;;;;5035414;28;20075;-55
2020/12/29 09:45:08;;;;;;;2.95;1.58;;;14.90;63.40;;;;;;5035337;28;20100;-55
2020/12/29 09:47:34;;;;;;;2.50;1.58;;;15.10;63.50;;;;;;5017262;28;20135;-57
2020/12/29 09:49:59;;;;;;;5.43;1.30;;;15.10;63.60;;;;;;5035140;28;20025;-56
2020/12/29 09:52:31;;;;;;;6.82;1.38;;;15.00;63.50;;;;;;5033122;28;20475;-55
2020/12/29 09:54:58;;;;;;;6.88;1.95;;;15.00;63.60;;;;;;5033560;28;20303;-54
2020/12/29 09:57:24;;;;;;;5.60;1.40;;;14.90;64.00;;;;;;5034112;28;20026;-56
2020/12/29 09:59:50;;;;;;;4.88;2.13;;;14.90;63.20;;;;;;5034464;28;20021;-55
2020/12/29 10:02:15;;;;;;;2.10;1.70;;;14.90;63.20;;;;;;5034613;28;20029;-56
2020/12/29 10:04:41;;;;;;;5.90;1.88;;;14.90;63.10;;;;;;5016645;28;20069;-56
2020/12/29 10:07:07;;;;;;;3.33;1.75;;;14.90;63.40;;;;;;5036903;28;20132;-53
2020/12/29 10:09:32;;;;;;;2.63;1.75;;;14.80;63.30;;;;;;5034853;28;20032;-55
2020/12/29 10:11:58;;;;;;;3.25;2.40;;;14.80;63.10;;;;;;5034838;28;20079;-56
2020/12/29 10:14:23;;;;;;;3.58;1.52;;;14.80;63.00;;;;;;5034654;28;20429;-55
2020/12/29 10:16:49;;;;;;;3.65;1.75;;;14.80;63.10;;;;;;5034711;28;20053;-55
2020/12/29 10:19:15;;;;;;;2.45;1.67;;;14.80;63.30;;;;;;5016659;28;20048;-55
2020/12/29 10:21:43;;;;;;;2.70;1.92;;;14.70;63.30;;;;;;5034605;28;20029;-55
2020/12/29 10:24:10;;;;;;;5.10;1.40;;;14.70;63.30;;;;;;5034495;28;20375;-55
2020/12/29 10:26:35;;;;;;;3.92;1.75;;;14.80;63.60;;;;;;5034543;28;20033;-56
2020/12/29 10:29:01;;;;;;;3.00;1.70;;;14.80;63.30;;;;;;5034426;28;20021;-55
2020/12/29 10:31:27;;;;;;;4.25;1.65;;;14.80;63.20;;;;;;5016461;28;20125;-55
2020/12/29 10:33:52;;;;;;;2.33;1.98;;;14.80;63.20;;;;;;5034318;28;20018;-55
2020/12/29 10:36:18;;;;;;;3.85;1.55;;;14.90;63.00;;;;;;5033017;28;20502;-54
2020/12/29 10:38:43;;;;;;;3.70;1.77;;;14.90;63.00;;;;;;5034216;28;20025;-55
2020/12/29 10:41:09;;;;;;;3.00;1.60;;;14.90;62.80;;;;;;5034061;28;20042;-56
2020/12/29 10:43:41;;;;;;;1.90;1.70;;;14.80;62.70;;;;;;5016369;28;20017;-55
2020/12/29 10:46:10;;;;;;;1.40;1.30;;;14.90;62.70;;;;;;5016321;28;20465;-56
2020/12/29 10:48:41;;;;;;;2.35;1.40;;;14.90;62.70;;;;;;5034344;28;20408;-55
2020/12/29 10:51:07;;;;;;;1.88;1.52;;;15.00;62.60;;;;;;5016076;28;20071;-56
2020/12/29 10:53:32;;;;;;;5.28;1.50;;;15.00;63.20;;;;;;5033975;28;20049;-56
2020/12/29 10:55:58;;;;;;;2.55;1.80;;;15.00;62.50;;;;;;5033821;28;20045;-55
2020/12/29 10:58:23;;;;;;;1.80;1.35;;;15.10;62.50;;;;;;5033729;28;20462;-56
2020/12/29 11:00:49;;;;;;;4.97;1.92;;;15.10;62.40;;;;;;5033698;28;20391;-55
2020/12/29 11:03:14;;;;;;;3.13;1.17;;;15.10;62.40;;;;;;5033753;28;20383;-55
2020/12/29 11:05:40;;;;;;;5.28;1.83;;;15.10;62.40;;;;;;5033813;28;20025;-55
2020/12/29 11:08:05;;;;;;;5.72;1.30;;;15.20;62.40;;;;;;5035396;28;20070;-55
2020/12/29 11:10:31;;;;;;;2.63;1.42;;;15.10;62.30;;;;;;5033582;28;20032;-56
2020/12/29 11:12:56;;;;;;;1.38;1.27;;;15.10;62.40;;;;;;5033506;28;20026;-56
2020/12/29 11:15:22;;;;;;;1.45;1.30;;;15.10;62.40;;;;;;5033601;28;20052;-55
2020/12/29 11:17:47;;;;;;;3.30;1.63;;;15.10;62.50;;;;;;5033500;28;20147;-55
2020/12/29 11:20:13;;;;;;;2.83;1.50;;;15.10;62.60;;;;;;5033387;28;20030;-55
2020/12/29 11:22:39;;;;;;;2.17;1.17;;;15.00;62.60;;;;;;5034032;28;20040;-55
2020/12/29 11:25:04;;;;;;;3.55;1.98;;;15.20;72.40;;;;;;5033411;28;20569;-54
2020/12/29 11:27:30;;;;;;;2.30;1.35;;;15.00;62.60;;;;;;5033224;28;20094;-56
2020/12/29 11:29:55;;;;;;;2.30;1.50;;;15.00;62.90;;;;;;5015731;28;20490;-56
2020/12/29 11:32:21;;;;;;;1.63;1.20;;;15.00;62.70;;;;;;5033304;28;20471;-55
2020/12/29 11:34:46;;;;;;;3.50;1.65;;;15.00;62.60;;;;;;5033110;28;20387;-56
2020/12/29 11:37:12;;;;;;;4.40;1.77;;;14.90;62.60;;;;;;5033231;28;20036;-54
2020/12/29 11:39:37;;;;;;;2.17;1.92;;;14.90;62.60;;;;;;5033136;28;20025;-57
2020/12/29 11:42:03;;;;;;;2.03;1.83;;;14.90;62.40;;;;;;5033192;28;20041;-55
2020/12/29 11:44:28;;;;;;;4.47;1.83;;;14.90;62.40;;;;;;5033016;28;20026;-55
2020/12/29 11:46:54;;;;;;;3.15;1.65;;;14.80;62.30;;;;;;5032668;28;20049;-54
2020/12/29 11:49:20;;;;;;;2.58;1.60;;;14.80;62.40;;;;;;5033060;28;20026;-55
2020/12/29 11:51:47;;;;;;;2.33;1.77;;;14.80;62.40;;;;;;5015120;28;20089;-55
2020/12/29 11:54:12;;;;;;;2.05;1.45;;;14.80;62.50;;;;;;5032916;28;20379;-55
2020/12/29 11:56:38;;;;;;;2.75;1.52;;;14.80;62.30;;;;;;5032668;28;20052;-56
2020/12/29 11:59:03;;;;;;;2.95;1.40;;;14.80;62.30;;;;;;5032693;28;20025;-55
2020/12/29 12:01:29;;;;;;;3.63;1.88;;;14.70;62.30;;;;;;5014968;28;20044;-55
2020/12/29 12:03:55;;;;;;;2.70;1.65;;;14.70;62.30;;;;;;5032982;28;20060;-55
2020/12/29 12:06:21;;;;;;;1.20;1.08;;;14.70;62.20;;;;;;5032568;28;20071;-56
2020/12/29 12:08:48;;;;;;;2.33;1.40;;;14.70;62.30;;;;;;5034159;28;20140;-56
2020/12/29 12:11:14;;;;;;;2.63;1.45;;;14.70;63.00;;;;;;5032454;28;20034;-55
2020/12/29 12:13:39;;;;;;;1.42;1.33;;;14.70;62.30;;;;;;5032408;28;20509;-55
2020/12/29 12:16:05;;;;;;;2.10;1.58;;;14.60;62.30;;;;;;5032678;28;20028;-56
2020/12/29 12:18:30;;;;;;;2.45;1.40;;;14.60;62.40;;;;;;5032507;28;20029;-53
2020/12/29 12:20:56;;;;;;;1.88;1.20;;;14.60;62.50;;;;;;5032195;28;20033;-55
2020/12/29 12:23:21;;;;;;;1.52;1.17;;;14.60;62.40;;;;;;5032241;28;20025;-55
2020/12/29 12:25:47;;;;;;;1.55;1.23;;;14.70;62.50;;;;;;5032241;28;20065;-55
2020/12/29 12:28:12;;;;;;;1.80;1.23;;;14.60;62.50;;;;;;5032175;28;20026;-55
2020/12/29 12:30:39;;;;;;;2.15;1.45;;;14.60;62.50;;;;;;5014577;28;20080;-55
2020/12/29 12:33:04;;;;;;;1.83;1.15;;;14.60;62.60;;;;;;5032060;28;20029;-54
2020/12/29 12:35:30;;;;;;;1.58;1.45;;;14.50;62.60;;;;;;5032027;28;20032;-55
2020/12/29 12:37:55;;;;;;;1.65;1.25;;;14.50;63.00;;;;;;5032260;28;20025;-55
2020/12/29 12:40:21;;;;;;;2.00;1.30;;;14.60;63.00;;;;;;5032032;28;20021;-55
2020/12/29 12:42:46;;;;;;;1.33;1.23;;;14.60;62.90;;;;;;5014315;28;20167;-56
2020/12/29 12:45:12;;;;;;;1.23;1.13;;;14.50;62.80;;;;;;5031987;28;20511;-56
2020/12/29 12:47:38;;;;;;;1.98;1.25;;;14.70;62.60;;;;;;5032033;28;20018;-55
2020/12/29 12:50:03;;;;;;;1.55;1.45;;;14.70;62.50;;;;;;5031978;28;20283;-55
2020/12/29 12:52:29;;;;;;;3.97;1.20;;;14.70;62.40;;;;;;5031516;28;20054;-56